McCall, ID

11:30 AM MST on February 07, 2016 (GMT -0700)
MesoWest | | Change Station
CLOSE
Current Station
Personal Weather Station
Location: McCall, ID
Elevation: 5350 ft
Nearby Weather Stations

Elev 5350 ft 44.95 °N, 116.14 °W | Updated 1 hour ago

Scattered Clouds
Scattered Clouds
18.0 °F
Feels Like 18.0 °F
N
0.0
Wind Variable Wind from North
Gusts 0.0 mph

Today
High -- | Low -- °F
--% Chance of Precip.
Yesterday
High -- | Low -- °F
Precip. -- in
Pressure 30.58 in
Visibility 3.0 miles
Clouds Scattered Clouds 100 ft
Dew Point Not available.
Humidity Not available.
Rainfall in
Snow Depth Not available.
7:57 AM 6:00 PM
Waning Crescent, 1% visible
SPECI KMYL 071825Z AUTO 00000KT 3SM BR SCT001 M05/M06 A3058 RMK AO2 T10501056
Pressure 30.58 in
Visibility 3.0 miles
Clouds Scattered Clouds 100 ft
Dew Point Not available.
Humidity Not available.
Rainfall in
Snow Depth Not available.
7:57 AM 6:00 PM
Waning Crescent, 1% visible
SPECI KMYL 071825Z AUTO 00000KT 3SM BR SCT001 M05/M06 A3058 RMK AO2 T10501056

10-Day Weather Forecast

Almanac

Astronomy

Feb. 07, 2016 Rise Set
Actual Time
Civil Twilight
Nautical Twilight
Astronomical Twilight
Moon
Length of Visible Light
Length of Day
Tomorrow will be .
, % of the Moon is Illuminated

Today's Extremes

State Highs State Lows

Community

WunderPhotos

Upload Photos

1,891,276 photos uploaded!

WunderBlog® & News

Nearby

Air Quality

  Air Quality AQ Index Pollutant
Not available.

Snow Depth

Station Depth Elevation

Earthquake Activity

City Distance Mag. Time & Date
Minimum magnitude displayed is 2.5.

Coastal Water Temperatures

Place Temperature

Stations

Nearby Weather Stations

Station Location Temp. Windchill Dew Point Humidity Wind Precip. Elev Updated Type
                   

Watches & Warnings

There are currently no watches in effect.